createdAt,value
2022-11-16T00:01:34.265Z,52.22
2022-11-16T00:04:04.299Z,52.54
2022-11-16T00:06:31.638Z,52.50
2022-11-16T00:09:20.634Z,52.48
2022-11-16T00:11:52.070Z,52.65
2022-11-16T00:14:20.094Z,52.74
2022-11-16T00:16:47.091Z,52.77
2022-11-16T00:19:14.381Z,52.77
2022-11-16T00:21:41.852Z,52.62
2022-11-16T00:24:12.924Z,52.49
2022-11-16T00:26:40.066Z,52.66
2022-11-16T00:29:14.591Z,52.64
2022-11-16T00:31:41.990Z,52.56
2022-11-16T00:34:09.379Z,53.14
2022-11-16T00:36:36.360Z,52.91
2022-11-16T00:39:04.185Z,52.72
2022-11-16T00:41:31.135Z,52.84
2022-11-16T00:43:58.145Z,52.94
2022-11-16T00:46:26.439Z,52.97
2022-11-16T00:48:53.987Z,53.16
2022-11-16T00:51:21.087Z,53.02
2022-11-16T00:53:48.115Z,53.08
2022-11-16T00:56:15.100Z,53.36
2022-11-16T00:58:42.087Z,53.20
2022-11-16T01:01:11.683Z,53.41
2022-11-16T01:03:40.155Z,52.87
2022-11-16T01:06:13.314Z,53.01
2022-11-16T01:08:42.349Z,53.18
2022-11-16T01:11:32.038Z,53.36
2022-11-16T01:14:01.039Z,53.69
2022-11-16T01:16:27.993Z,53.27
2022-11-16T01:18:56.435Z,53.41
2022-11-16T01:21:24.414Z,53.29
2022-11-16T01:23:51.988Z,53.35
2022-11-16T01:26:19.261Z,53.39
2022-11-16T01:28:48.617Z,53.32
2022-11-16T01:31:15.607Z,53.02
2022-11-16T01:33:42.662Z,53.11
2022-11-16T01:36:17.212Z,52.92
2022-11-16T01:38:46.374Z,53.14
2022-11-16T01:41:14.918Z,52.87
2022-11-16T01:43:57.909Z,53.02
2022-11-16T01:46:26.384Z,52.46
2022-11-16T01:49:01.725Z,52.29
2022-11-16T01:51:31.203Z,52.47
2022-11-16T01:54:02.582Z,52.54
2022-11-16T01:56:33.470Z,52.19
2022-11-16T01:59:00.531Z,52.19
2022-11-16T02:01:27.768Z,52.18
2022-11-16T02:03:54.944Z,52.15
2022-11-16T02:06:39.541Z,52.35
2022-11-16T02:09:55.554Z,52.05
2022-11-16T02:12:50.389Z,52.08
2022-11-16T02:15:30.405Z,52.28
2022-11-16T02:18:16.699Z,52.17
2022-11-16T02:21:20.447Z,51.91
2022-11-16T02:24:06.528Z,51.86
2022-11-16T02:27:07.619Z,52.16
2022-11-16T02:29:39.684Z,51.56
2022-11-16T02:32:13.555Z,51.70
2022-11-16T02:34:47.275Z,51.78
2022-11-16T02:37:20.720Z,51.71
2022-11-16T02:39:54.158Z,51.35
2022-11-16T02:42:29.157Z,51.68
2022-11-16T02:45:00.613Z,51.42
2022-11-16T02:47:33.560Z,51.35
2022-11-16T02:50:07.498Z,51.68
2022-11-16T02:52:37.685Z,51.83
2022-11-16T02:55:06.820Z,51.91
2022-11-16T02:57:53.322Z,52.04
2022-11-16T03:00:25.950Z,51.65
2022-11-16T03:03:17.932Z,51.91
2022-11-16T03:05:51.016Z,52.27
2022-11-16T03:08:26.902Z,52.22
2022-11-16T03:11:17.991Z,52.43
2022-11-16T03:13:47.246Z,52.71
2022-11-16T03:16:22.383Z,52.67
2022-11-16T03:18:53.731Z,53.37
2022-11-16T03:21:30.383Z,53.28
2022-11-16T03:23:57.640Z,53.62
2022-11-16T03:26:35.230Z,53.93
2022-11-16T03:29:13.788Z,54.03
2022-11-16T03:31:49.576Z,54.55
2022-11-16T03:34:23.299Z,54.55
2022-11-16T03:36:53.523Z,55.04
2022-11-16T03:39:26.018Z,55.16
2022-11-16T03:41:56.525Z,55.27
2022-11-16T03:44:23.548Z,55.66
2022-11-16T03:46:51.912Z,55.58
2022-11-16T03:49:22.119Z,55.72
2022-11-16T03:51:50.090Z,56.17
2022-11-16T03:54:17.196Z,56.15
2022-11-16T03:56:44.181Z,56.62
2022-11-16T03:59:11.118Z,56.26
2022-11-16T04:01:41.855Z,56.58
2022-11-16T04:04:33.413Z,56.67
2022-11-16T04:07:19.116Z,56.45
2022-11-16T04:10:04.507Z,56.45
2022-11-16T04:12:50.435Z,56.41
2022-11-16T04:15:36.059Z,56.73
2022-11-16T04:18:21.517Z,56.86
2022-11-16T04:21:08.243Z,56.90
2022-11-16T04:23:53.727Z,57.27
2022-11-16T04:26:40.685Z,57.31
2022-11-16T04:29:07.716Z,56.97
2022-11-16T04:31:53.607Z,57.30
2022-11-16T04:34:39.181Z,57.36
2022-11-16T04:37:27.837Z,57.64
2022-11-16T04:39:54.725Z,57.53
2022-11-16T04:42:22.676Z,57.60
2022-11-16T04:45:09.836Z,57.71
2022-11-16T04:47:36.780Z,57.92
2022-11-16T04:50:05.167Z,57.84
2022-11-16T04:52:33.444Z,57.65
2022-11-16T04:55:00.507Z,58.11
2022-11-16T04:57:27.508Z,57.95
2022-11-16T04:59:54.438Z,57.83
2022-11-16T05:02:21.334Z,58.04
2022-11-16T05:04:48.231Z,58.07
2022-11-16T05:07:15.256Z,58.31
2022-11-16T05:09:46.865Z,58.44
2022-11-16T05:12:17.245Z,58.36
2022-11-16T05:14:45.688Z,58.01
2022-11-16T05:17:13.601Z,58.47
2022-11-16T05:19:59.040Z,58.39
2022-11-16T05:22:26.453Z,58.95
2022-11-16T05:24:55.010Z,58.65
2022-11-16T05:27:24.132Z,58.78
2022-11-16T05:29:51.357Z,58.67
2022-11-16T05:32:20.023Z,58.72
2022-11-16T05:34:47.442Z,58.83
2022-11-16T05:37:14.497Z,58.82
2022-11-16T05:39:42.157Z,59.28
2022-11-16T05:42:10.881Z,59.21
2022-11-16T05:44:37.829Z,59.29
2022-11-16T05:47:05.255Z,59.68
2022-11-16T05:49:32.188Z,59.68
2022-11-16T05:51:59.147Z,59.83
2022-11-16T05:54:26.407Z,59.91
2022-11-16T05:56:54.744Z,59.65
2022-11-16T05:59:23.851Z,59.78
2022-11-16T06:01:51.480Z,59.80
2022-11-16T06:04:24.505Z,59.96
2022-11-16T06:06:52.352Z,59.96
2022-11-16T06:09:19.764Z,60.35
2022-11-16T06:11:46.730Z,60.28
2022-11-16T06:14:13.686Z,60.36
2022-11-16T06:16:41.973Z,60.39
2022-11-16T06:19:09.081Z,60.33
2022-11-16T06:21:36.160Z,60.56
2022-11-16T06:24:08.725Z,60.44
2022-11-16T06:26:36.479Z,60.73
2022-11-16T06:29:04.302Z,60.46
2022-11-16T06:31:31.610Z,60.22
2022-11-16T06:34:00.259Z,60.16
2022-11-16T06:36:28.526Z,60.49
2022-11-16T06:38:55.448Z,60.46
2022-11-16T06:41:23.104Z,60.50
2022-11-16T06:43:50.058Z,60.53
2022-11-16T06:46:17.382Z,60.27
2022-11-16T06:48:45.017Z,60.19
2022-11-16T06:51:13.353Z,60.12
2022-11-16T06:53:40.867Z,60.11
2022-11-16T06:56:10.186Z,60.11
2022-11-16T06:58:37.393Z,59.89
2022-11-16T07:01:08.876Z,59.80
2022-11-16T07:03:35.898Z,60.05
2022-11-16T07:06:07.373Z,60.11
2022-11-16T07:08:36.092Z,59.89
2022-11-16T07:11:06.105Z,59.89
2022-11-16T07:13:34.635Z,59.75
2022-11-16T07:16:03.766Z,59.77
2022-11-16T07:18:34.517Z,59.79
2022-11-16T07:21:06.491Z,59.76
2022-11-16T07:23:35.364Z,60.02
2022-11-16T07:26:04.400Z,60.23
2022-11-16T07:28:32.321Z,59.74
2022-11-16T07:31:02.134Z,59.79
2022-11-16T07:33:29.582Z,59.80
2022-11-16T07:36:02.041Z,60.33
2022-11-16T07:38:30.382Z,60.58
2022-11-16T07:41:01.669Z,61.08
2022-11-16T07:43:29.768Z,61.15
2022-11-16T07:46:20.062Z,61.31
2022-11-16T07:48:45.652Z,62.09
2022-11-16T07:51:16.667Z,62.58
2022-11-16T07:53:44.691Z,62.44
2022-11-16T07:56:13.317Z,63.44
2022-11-16T07:58:40.691Z,63.56
2022-11-16T08:01:14.448Z,63.83
2022-11-16T08:03:43.580Z,63.84
2022-11-16T08:06:15.969Z,63.84
2022-11-16T08:08:43.059Z,64.14
2022-11-16T08:11:12.894Z,64.19
2022-11-16T08:13:41.739Z,64.57
2022-11-16T08:16:12.810Z,64.69
2022-11-16T08:18:42.158Z,64.58
2022-11-16T08:21:13.736Z,65.27
2022-11-16T08:23:41.421Z,65.21
2022-11-16T08:26:14.312Z,65.28
2022-11-16T08:28:43.395Z,65.55
2022-11-16T08:31:13.416Z,65.90
2022-11-16T08:33:40.523Z,65.76
2022-11-16T08:36:14.241Z,66.03
2022-11-16T08:38:41.897Z,65.88
2022-11-16T08:41:08.965Z,65.60
2022-11-16T08:43:39.500Z,65.36
2022-11-16T08:46:07.475Z,65.33
2022-11-16T08:48:34.856Z,65.45
2022-11-16T08:51:17.511Z,65.44
2022-11-16T08:53:45.470Z,65.62
2022-11-16T08:56:13.566Z,65.63
2022-11-16T08:58:44.104Z,65.65
2022-11-16T09:01:13.827Z,65.74
2022-11-16T09:03:42.137Z,65.98
2022-11-16T09:06:11.446Z,65.98
2022-11-16T09:08:41.583Z,66.01
2022-11-16T09:11:11.933Z,65.64
2022-11-16T09:13:39.003Z,66.05
2022-11-16T09:16:08.124Z,66.18
2022-11-16T09:18:36.402Z,66.14
2022-11-16T09:21:04.194Z,66.17
2022-11-16T09:23:31.250Z,66.24
2022-11-16T09:26:01.786Z,66.19
2022-11-16T09:28:29.169Z,66.38
2022-11-16T09:31:01.887Z,66.18
2022-11-16T09:33:32.355Z,66.50
2022-11-16T09:36:02.029Z,66.25
2022-11-16T09:38:40.652Z,66.09
2022-11-16T09:41:45.210Z,66.39
2022-11-16T09:44:30.951Z,66.53
2022-11-16T09:47:01.053Z,66.81
2022-11-16T09:49:37.023Z,66.64
2022-11-16T09:52:10.814Z,66.79
2022-11-16T09:54:43.201Z,66.57
2022-11-16T09:57:17.350Z,66.91
2022-11-16T09:59:48.625Z,66.48
2022-11-16T10:02:26.229Z,66.49
2022-11-16T10:05:01.432Z,67.02
2022-11-16T10:07:38.080Z,66.58
2022-11-16T10:10:08.602Z,66.60
2022-11-16T10:12:43.664Z,66.86
2022-11-16T10:15:39.920Z,66.64
2022-11-16T10:18:28.203Z,66.28
2022-11-16T10:21:32.995Z,66.24
2022-11-16T10:24:33.168Z,66.41
2022-11-16T10:27:21.765Z,66.61
2022-11-16T10:30:06.689Z,66.40
2022-11-16T10:32:40.226Z,66.46
2022-11-16T10:35:17.995Z,66.52
2022-11-16T10:37:50.586Z,66.63
2022-11-16T10:40:23.579Z,66.52
2022-11-16T10:43:03.995Z,66.08
2022-11-16T10:45:39.165Z,65.87
2022-11-16T10:48:22.871Z,65.67
2022-11-16T10:50:52.737Z,65.50
2022-11-16T10:53:31.805Z,65.48
2022-11-16T10:56:26.167Z,65.64
2022-11-16T10:58:58.596Z,66.12
2022-11-16T11:01:33.749Z,65.62
2022-11-16T11:04:21.288Z,65.77
2022-11-16T11:06:51.680Z,64.98
2022-11-16T11:09:30.414Z,64.86
2022-11-16T11:12:29.475Z,65.20
2022-11-16T11:15:05.988Z,65.35
2022-11-16T11:17:36.174Z,65.26
2022-11-16T11:20:06.126Z,64.99
2022-11-16T11:22:41.451Z,65.04
2022-11-16T11:25:21.882Z,65.20
2022-11-16T11:27:52.508Z,65.42
2022-11-16T11:30:21.858Z,65.30
2022-11-16T11:32:50.538Z,65.34
2022-11-16T11:35:27.850Z,65.21
2022-11-16T11:38:03.365Z,65.26
2022-11-16T11:40:36.258Z,65.96
2022-11-16T11:43:05.917Z,65.74
2022-11-16T11:45:42.149Z,65.78
2022-11-16T11:48:29.649Z,65.70
2022-11-16T11:51:02.862Z,65.59
2022-11-16T11:53:52.014Z,65.92
2022-11-16T11:56:20.588Z,65.60
2022-11-16T11:58:49.703Z,66.10
2022-11-16T12:01:55.086Z,65.71
2022-11-16T12:05:20.953Z,65.94
2022-11-16T12:08:14.700Z,65.87
2022-11-16T12:10:51.130Z,65.63
2022-11-16T12:13:45.858Z,64.85
2022-11-16T12:16:23.284Z,65.01
2022-11-16T12:19:35.912Z,64.73
2022-11-16T12:22:22.621Z,64.98
2022-11-16T12:25:09.630Z,64.93
2022-11-16T12:27:50.722Z,64.87
2022-11-16T12:30:23.374Z,65.28
2022-11-16T12:33:10.434Z,65.09
2022-11-16T12:35:51.956Z,65.14
2022-11-16T12:38:58.481Z,65.01
2022-11-16T12:42:08.312Z,65.06
2022-11-16T12:45:15.624Z,65.04
2022-11-16T12:48:13.596Z,65.11
2022-11-16T12:50:57.239Z,64.60
2022-11-16T12:53:54.394Z,64.33
2022-11-16T12:56:38.173Z,64.48
2022-11-16T12:59:28.146Z,64.41
2022-11-16T13:02:12.423Z,64.55
2022-11-16T13:04:45.882Z,64.43
2022-11-16T13:07:21.031Z,64.35
2022-11-16T13:09:56.619Z,64.58
2022-11-16T13:12:26.559Z,64.41
2022-11-16T13:14:58.611Z,64.16
2022-11-16T13:17:30.772Z,64.32
2022-11-16T13:20:28.480Z,64.20
2022-11-16T13:23:02.695Z,63.74
2022-11-16T13:25:39.267Z,63.73
2022-11-16T13:28:19.240Z,63.64
2022-11-16T13:31:00.684Z,63.26
2022-11-16T13:33:40.213Z,63.26
2022-11-16T13:36:45.534Z,63.11
2022-11-16T13:39:22.011Z,63.05
2022-11-16T13:42:05.555Z,63.24
2022-11-16T13:44:34.651Z,62.93
2022-11-16T13:47:06.124Z,62.83
2022-11-16T13:49:38.147Z,62.77
2022-11-16T13:52:35.677Z,63.10
2022-11-16T13:55:25.471Z,63.42
2022-11-16T13:57:56.673Z,63.38
2022-11-16T14:00:30.640Z,63.11
2022-11-16T14:03:32.173Z,62.86
2022-11-16T14:05:59.529Z,63.12
2022-11-16T14:08:52.792Z,62.82
2022-11-16T14:11:36.129Z,62.74
2022-11-16T14:14:05.834Z,62.83
2022-11-16T14:16:48.261Z,62.67
2022-11-16T14:19:55.331Z,62.34
2022-11-16T14:22:54.027Z,62.36
2022-11-16T14:25:37.225Z,62.42
2022-11-16T14:28:32.582Z,62.24
2022-11-16T14:31:16.658Z,62.27
2022-11-16T14:33:51.657Z,61.99
2022-11-16T14:36:39.821Z,62.35
2022-11-16T14:39:37.285Z,62.42
2022-11-16T14:42:18.198Z,62.08
2022-11-16T14:44:46.730Z,62.43
2022-11-16T14:47:24.504Z,62.27
2022-11-16T14:49:52.742Z,62.41
2022-11-16T14:52:32.276Z,62.18
2022-11-16T14:55:05.196Z,62.27
2022-11-16T14:57:33.766Z,62.33
2022-11-16T15:00:10.503Z,62.27
2022-11-16T15:02:38.431Z,62.60
2022-11-16T15:05:08.236Z,62.51
2022-11-16T15:07:35.535Z,62.58
2022-11-16T15:10:03.227Z,62.60
2022-11-16T15:12:41.936Z,62.51
2022-11-16T15:15:16.886Z,62.39
2022-11-16T15:17:51.581Z,62.35
2022-11-16T15:20:21.533Z,62.32
2022-11-16T15:22:53.218Z,62.38
2022-11-16T15:25:28.035Z,62.53
2022-11-16T15:27:59.062Z,62.50
2022-11-16T15:30:29.509Z,62.53
2022-11-16T15:32:56.825Z,62.66
2022-11-16T15:35:28.767Z,62.66
2022-11-16T15:38:04.876Z,62.81
2022-11-16T15:40:32.898Z,62.77
2022-11-16T15:43:05.788Z,62.73
2022-11-16T15:45:33.975Z,63.03
2022-11-16T15:48:03.446Z,62.93
2022-11-16T15:50:31.513Z,62.88
2022-11-16T15:52:59.724Z,63.02
2022-11-16T15:55:33.797Z,62.99
2022-11-16T15:58:11.505Z,63.50
2022-11-16T16:00:38.924Z,63.19
2022-11-16T16:03:18.874Z,63.52
2022-11-16T16:05:46.686Z,63.52
2022-11-16T16:08:31.568Z,63.43
2022-11-16T16:11:06.310Z,63.22
2022-11-16T16:13:38.708Z,63.01
2022-11-16T16:16:26.756Z,62.97
2022-11-16T16:18:58.110Z,63.08
2022-11-16T16:21:38.912Z,63.02
2022-11-16T16:24:08.164Z,62.84
2022-11-16T16:26:35.077Z,62.83
2022-11-16T16:29:03.347Z,63.00
2022-11-16T16:31:30.545Z,62.99
2022-11-16T16:33:59.428Z,62.99
2022-11-16T16:36:26.643Z,62.88
2022-11-16T16:38:53.786Z,62.82
2022-11-16T16:41:24.210Z,62.83
2022-11-16T16:43:52.073Z,63.00
2022-11-16T16:46:21.630Z,62.99
2022-11-16T16:48:48.774Z,63.00
2022-11-16T16:51:16.000Z,62.82
2022-11-16T16:53:43.012Z,62.46
2022-11-16T16:56:16.588Z,62.38
2022-11-16T16:58:43.583Z,62.40
2022-11-16T17:01:11.491Z,62.32
2022-11-16T17:03:40.037Z,62.32
2022-11-16T17:06:07.221Z,62.21
2022-11-16T17:08:35.418Z,61.81
2022-11-16T17:11:03.336Z,62.09
2022-11-16T17:13:31.175Z,62.17
2022-11-16T17:15:58.505Z,62.15
2022-11-16T17:18:26.092Z,62.41
2022-11-16T17:20:54.391Z,62.19
2022-11-16T17:23:21.414Z,62.16
2022-11-16T17:25:48.397Z,62.08
2022-11-16T17:28:15.326Z,61.88
2022-11-16T17:30:42.366Z,61.64
2022-11-16T17:33:10.398Z,61.69
2022-11-16T17:35:39.702Z,61.44
2022-11-16T17:38:09.683Z,61.41
2022-11-16T17:40:36.629Z,61.01
2022-11-16T17:43:03.550Z,61.29
2022-11-16T17:45:30.513Z,61.32
2022-11-16T17:47:57.535Z,61.34
2022-11-16T17:50:24.458Z,61.47
2022-11-16T17:52:51.378Z,61.32
2022-11-16T17:55:19.691Z,61.56
2022-11-16T17:57:46.679Z,62.00
2022-11-16T18:00:15.616Z,61.45
2022-11-16T18:02:42.548Z,61.10
2022-11-16T18:05:09.805Z,61.23
2022-11-16T18:07:38.337Z,60.91
2022-11-16T18:10:07.318Z,60.97
2022-11-16T18:12:35.560Z,61.29
2022-11-16T18:15:29.025Z,61.17
2022-11-16T18:17:51.141Z,60.97
2022-11-16T18:20:19.196Z,60.92
2022-11-16T18:22:46.127Z,60.94
2022-11-16T18:25:13.053Z,60.92
2022-11-16T18:27:41.328Z,60.72
2022-11-16T18:30:10.099Z,61.02
2022-11-16T18:32:37.156Z,61.13
2022-11-16T18:35:09.796Z,61.01
2022-11-16T18:37:36.920Z,60.78
2022-11-16T18:40:04.659Z,60.42
2022-11-16T18:42:31.581Z,60.68
2022-11-16T18:44:59.851Z,60.32
2022-11-16T18:47:26.922Z,60.67
2022-11-16T18:49:53.867Z,60.51
2022-11-16T18:52:20.767Z,60.59
2022-11-16T18:54:47.703Z,60.84
2022-11-16T18:57:14.600Z,60.80
2022-11-16T18:59:41.556Z,60.79
2022-11-16T19:02:11.549Z,60.71
2022-11-16T19:04:40.176Z,60.39
2022-11-16T19:07:07.757Z,60.62
2022-11-16T19:09:34.766Z,60.53
2022-11-16T19:12:01.696Z,60.51
2022-11-16T19:14:28.629Z,60.41
2022-11-16T19:16:57.295Z,60.35
2022-11-16T19:19:27.618Z,60.45
2022-11-16T19:21:56.807Z,60.50
2022-11-16T19:24:23.987Z,60.37
2022-11-16T19:26:51.895Z,60.32
2022-11-16T19:29:18.879Z,60.28
2022-11-16T19:31:45.813Z,60.45
2022-11-16T19:34:13.323Z,60.56
2022-11-16T19:36:41.829Z,59.96
2022-11-16T19:39:08.881Z,59.97
2022-11-16T19:41:35.847Z,60.10
2022-11-16T19:44:02.795Z,59.89
2022-11-16T19:46:32.730Z,59.78
2022-11-16T19:49:00.917Z,59.83
2022-11-16T19:51:29.899Z,60.21
2022-11-16T19:53:59.954Z,60.27
2022-11-16T19:56:27.312Z,60.13
2022-11-16T19:58:54.409Z,60.18
2022-11-16T20:01:25.145Z,60.14
2022-11-16T20:03:52.385Z,59.95
2022-11-16T20:06:22.035Z,60.11
2022-11-16T20:08:51.789Z,59.83
2022-11-16T20:11:27.985Z,59.92
2022-11-16T20:13:56.986Z,60.20
2022-11-16T20:16:26.374Z,60.09
2022-11-16T20:18:54.795Z,59.93
2022-11-16T20:21:25.536Z,60.04
2022-11-16T20:23:53.674Z,59.85
2022-11-16T20:26:22.328Z,59.80
2022-11-16T20:28:52.405Z,59.75
2022-11-16T20:31:22.054Z,59.68
2022-11-16T20:33:53.838Z,59.47
2022-11-16T20:36:22.923Z,59.37
2022-11-16T20:38:50.280Z,59.21
2022-11-16T20:41:20.766Z,59.71
2022-11-16T20:43:53.367Z,59.50
2022-11-16T20:46:22.982Z,59.24
2022-11-16T20:48:50.245Z,59.25
2022-11-16T20:51:21.157Z,59.15
2022-11-16T20:53:49.661Z,59.18
2022-11-16T20:56:19.177Z,59.38
2022-11-16T20:58:46.728Z,59.32
2022-11-16T21:01:17.854Z,59.17
2022-11-16T21:03:46.512Z,59.23
2022-11-16T21:06:14.375Z,59.36
2022-11-16T21:08:41.653Z,59.26
2022-11-16T21:11:12.262Z,59.26
2022-11-16T21:13:58.551Z,59.30
2022-11-16T21:16:26.995Z,59.41
2022-11-16T21:18:54.564Z,59.31
2022-11-16T21:21:21.532Z,59.10
2022-11-16T21:23:51.704Z,58.98
2022-11-16T21:26:21.749Z,59.22
2022-11-16T21:28:48.823Z,59.36
2022-11-16T21:31:18.802Z,59.24
2022-11-16T21:33:48.011Z,59.46
2022-11-16T21:36:17.309Z,59.55
2022-11-16T21:38:45.142Z,59.83
2022-11-16T21:41:14.886Z,60.31
2022-11-16T21:43:42.367Z,60.39
2022-11-16T21:46:13.144Z,59.89
2022-11-16T21:48:40.798Z,60.25
2022-11-16T21:51:12.057Z,60.21
2022-11-16T21:53:40.012Z,60.13
2022-11-16T21:56:12.455Z,60.11
2022-11-16T21:58:40.191Z,59.90
2022-11-16T22:01:09.139Z,59.77
2022-11-16T22:03:37.145Z,60.12
2022-11-16T22:06:25.716Z,60.52
2022-11-16T22:08:53.982Z,60.04
2022-11-16T22:11:22.134Z,60.12
2022-11-16T22:13:50.339Z,60.31
2022-11-16T22:16:23.016Z,59.78
2022-11-16T22:18:50.117Z,59.96
2022-11-16T22:21:17.136Z,59.61
2022-11-16T22:23:44.087Z,59.48
2022-11-16T22:26:14.187Z,59.45
2022-11-16T22:28:41.600Z,59.86
2022-11-16T22:31:11.594Z,59.22
2022-11-16T22:33:39.465Z,59.82
2022-11-16T22:36:09.227Z,59.83
2022-11-16T22:38:36.685Z,59.61
2022-11-16T22:41:04.137Z,59.68
2022-11-16T22:43:33.035Z,59.68
2022-11-16T22:46:02.147Z,59.59
2022-11-16T22:48:31.399Z,59.37
2022-11-16T22:51:04.243Z,59.60
2022-11-16T22:53:31.388Z,59.84
2022-11-16T22:56:07.767Z,59.49
2022-11-16T22:58:37.395Z,59.71
2022-11-16T23:01:07.238Z,59.75
2022-11-16T23:03:35.053Z,59.13
2022-11-16T23:06:03.652Z,59.64
2022-11-16T23:08:31.687Z,59.64
2022-11-16T23:11:19.975Z,59.54
2022-11-16T23:14:07.675Z,59.63
2022-11-16T23:16:35.790Z,59.58
2022-11-16T23:19:24.847Z,59.67
2022-11-16T23:22:10.339Z,59.90
2022-11-16T23:24:55.844Z,59.57
2022-11-16T23:27:29.630Z,59.89
2022-11-16T23:29:59.908Z,60.00
2022-11-16T23:32:27.341Z,59.37
2022-11-16T23:34:54.351Z,59.77
2022-11-16T23:37:21.911Z,59.57
2022-11-16T23:39:48.832Z,60.09
2022-11-16T23:42:34.503Z,59.52
2022-11-16T23:45:03.217Z,59.96
2022-11-16T23:47:30.232Z,59.63
2022-11-16T23:49:57.164Z,59.65
2022-11-16T23:52:24.093Z,59.41
2022-11-16T23:54:51.246Z,59.43
2022-11-16T23:57:18.179Z,59.50
2022-11-16T23:59:45.069Z,59.35
